Time;durP1;ratioP1;P1;durP2;ratioP2;P2;SDS_P1;SDS_P2;PMS_P1;PMS_P2;Temp;Humidity;BMP_temperature;BMP_pressure;BME280_temperature;BME280_humidity;BME280_pressure;Samples;Min_cycle;Max_cycle;Signal;HPM_P1;HPM_P2
2021/12/06 00:02:21;;;;;;;20.58;8.35;;;0.00;99.90;;;;;;5120606;27;20553;-57
2021/12/06 00:05:00;;;;;;;10.43;8.48;;;0.00;99.90;;;;;;5103722;27;20585;-57
2021/12/06 00:07:40;;;;;;;19.17;7.82;;;0.00;99.90;;;;;;5102706;27;20542;-57
2021/12/06 00:10:20;;;;;;;10.50;8.07;;;0.00;99.90;;;;;;5105086;27;20541;-57
2021/12/06 00:13:00;;;;;;;12.25;8.70;;;0.00;99.90;;;;;;5104426;27;21194;-57
2021/12/06 00:15:39;;;;;;;9.95;8.02;;;0.00;99.90;;;;;;5083809;27;21080;-57
2021/12/06 00:18:20;;;;;;;12.43;8.82;;;0.00;99.90;;;;;;5125878;27;20563;-57
2021/12/06 00:20:59;;;;;;;13.55;8.80;;;0.10;99.90;;;;;;5084333;27;20575;-57
2021/12/06 00:23:39;;;;;;;14.85;9.23;;;0.10;99.90;;;;;;5084401;28;20726;-57
2021/12/06 00:26:19;;;;;;;18.77;9.88;;;0.10;99.90;;;;;;5146295;27;21179;-58
2021/12/06 00:28:58;;;;;;;10.02;8.40;;;0.20;99.90;;;;;;5125689;27;20658;-58
2021/12/06 00:31:39;;;;;;;10.30;9.15;;;0.20;99.90;;;;;;5146158;27;20530;-57
2021/12/06 00:34:22;;;;;;;11.70;7.70;;;0.20;99.90;;;;;;5104467;27;20869;-57
2021/12/06 00:37:16;;;;;;;8.80;7.20;;;0.20;99.90;;;;;;5166824;27;20533;-57
2021/12/06 00:40:00;;;;;;;11.43;7.88;;;0.20;99.90;;;;;;5084263;27;20566;-57
2021/12/06 00:42:40;;;;;;;7.75;7.05;;;0.20;99.90;;;;;;5084661;27;20553;-57
2021/12/06 00:45:20;;;;;;;7.30;6.70;;;0.20;99.90;;;;;;5123891;27;20656;-58
2021/12/06 00:48:00;;;;;;;7.72;7.03;;;0.20;99.90;;;;;;5062951;27;20566;-58
2021/12/06 00:50:42;;;;;;;7.80;6.75;;;0.20;99.90;;;;;;5104880;27;20545;-57
2021/12/06 00:53:22;;;;;;;8.13;7.28;;;0.20;99.90;;;;;;5104807;27;20737;-57
2021/12/06 00:56:02;;;;;;;8.10;7.50;;;0.20;99.90;;;;;;5084042;28;20641;-58
2021/12/06 00:58:43;;;;;;;8.40;7.60;;;0.20;99.90;;;;;;5084534;27;20548;-57
2021/12/06 01:01:22;;;;;;;8.40;7.50;;;0.20;99.90;;;;;;5102962;27;20665;-58
2021/12/06 01:04:02;;;;;;;8.57;7.28;;;0.20;99.90;;;;;;5099120;27;20682;-57
2021/12/06 01:06:41;;;;;;;8.55;7.32;;;0.20;99.90;;;;;;5083637;27;20572;-57
2021/12/06 01:09:21;;;;;;;7.95;7.35;;;0.20;99.90;;;;;;5068462;28;21613;-58
2021/12/06 01:12:02;;;;;;;7.55;6.95;;;0.20;99.90;;;;;;5104601;27;20607;-57
2021/12/06 01:14:41;;;;;;;7.53;6.93;;;0.20;99.90;;;;;;5104329;27;20650;-57
2021/12/06 01:17:21;;;;;;;7.15;6.65;;;0.20;99.90;;;;;;5125490;27;20665;-58
2021/12/06 01:20:01;;;;;;;7.22;6.63;;;0.20;99.90;;;;;;5125506;27;20963;-58
2021/12/06 01:22:45;;;;;;;7.03;6.45;;;0.20;99.90;;;;;;5148950;27;20537;-57
2021/12/06 01:25:32;;;;;;;7.72;7.13;;;0.20;99.90;;;;;;5145101;27;20527;-57
2021/12/06 01:28:35;;;;;;;7.68;7.18;;;0.20;99.90;;;;;;5146405;27;21042;-57
2021/12/06 01:31:30;;;;;;;5.88;5.47;;;0.20;99.90;;;;;;5125976;27;20529;-57
2021/12/06 01:40:09;;;;;;;13.55;10.05;;;0.20;99.90;;;;;;5084453;27;20569;-58
2021/12/06 01:42:49;;;;;;;11.10;9.65;;;0.20;99.90;;;;;;5084209;27;20546;-58
2021/12/06 01:45:29;;;;;;;14.85;10.77;;;0.20;99.90;;;;;;5124506;27;20536;-57
2021/12/06 01:48:08;;;;;;;15.52;9.38;;;0.20;99.90;;;;;;5145662;27;20550;-58
2021/12/06 01:50:48;;;;;;;12.07;9.88;;;0.20;99.90;;;;;;5084681;27;20555;-58
2021/12/06 01:53:28;;;;;;;13.35;9.48;;;0.20;99.90;;;;;;5084467;27;21052;-57
2021/12/06 01:56:08;;;;;;;8.88;8.07;;;0.20;99.90;;;;;;5084091;28;20668;-57
2021/12/06 01:58:48;;;;;;;8.35;7.65;;;0.20;99.90;;;;;;5104893;27;20557;-58
2021/12/06 02:01:28;;;;;;;8.13;7.50;;;0.20;99.90;;;;;;5144512;27;20659;-58
2021/12/06 02:04:08;;;;;;;7.90;7.28;;;0.20;99.90;;;;;;5140240;27;21043;-56
2021/12/06 02:06:47;;;;;;;8.93;7.43;;;0.20;99.90;;;;;;5153840;27;20673;-57
2021/12/06 02:09:28;;;;;;;8.15;7.32;;;0.10;99.90;;;;;;5067074;28;20557;-57
2021/12/06 02:12:10;;;;;;;8.30;7.63;;;0.10;99.90;;;;;;5084250;27;20559;-57
2021/12/06 02:14:57;;;;;;;8.55;7.85;;;0.10;99.90;;;;;;5083661;27;20551;-58
2021/12/06 02:17:40;;;;;;;8.05;7.35;;;0.10;99.90;;;;;;5084528;27;21116;-58
2021/12/06 02:20:25;;;;;;;8.10;7.45;;;0.20;99.90;;;;;;5145807;27;20595;-58
2021/12/06 02:23:06;;;;;;;8.20;7.50;;;0.10;99.90;;;;;;5084542;27;20547;-57
2021/12/06 02:25:46;;;;;;;8.95;8.07;;;0.20;99.90;;;;;;5145282;27;21067;-57
2021/12/06 02:28:25;;;;;;;8.27;7.63;;;0.20;99.90;;;;;;5147778;27;20678;-58
2021/12/06 02:31:05;;;;;;;9.10;8.25;;;0.10;99.90;;;;;;5084678;27;20543;-58
2021/12/06 02:33:48;;;;;;;8.35;7.70;;;0.10;99.90;;;;;;5145810;27;20546;-58
2021/12/06 02:36:28;;;;;;;8.52;7.82;;;0.10;99.90;;;;;;5084733;27;20544;-57
2021/12/06 02:39:10;;;;;;;8.85;8.15;;;0.10;99.90;;;;;;5146082;27;20550;-57
2021/12/06 02:41:51;;;;;;;7.75;7.15;;;0.10;99.90;;;;;;5084665;27;20989;-57
2021/12/06 02:44:31;;;;;;;8.10;7.35;;;0.10;99.90;;;;;;5083188;27;20927;-58
2021/12/06 02:47:10;;;;;;;8.02;7.32;;;0.10;99.90;;;;;;5082778;27;21022;-58
2021/12/06 02:49:50;;;;;;;7.35;6.80;;;0.10;99.90;;;;;;5155401;27;20545;-57
2021/12/06 02:52:30;;;;;;;7.63;6.93;;;0.10;99.90;;;;;;5125150;27;20532;-58
2021/12/06 02:55:28;;;;;;;6.03;5.53;;;0.10;99.90;;;;;;5083609;27;20556;-58
2021/12/06 02:58:17;;;;;;;7.07;6.57;;;0.10;99.90;;;;;;5084519;27;20570;-58
2021/12/06 03:00:57;;;;;;;7.38;6.78;;;0.10;99.90;;;;;;5083001;27;20547;-57
2021/12/06 03:03:37;;;;;;;8.48;7.78;;;0.10;99.90;;;;;;5120032;27;20980;-57
2021/12/06 03:06:18;;;;;;;9.27;8.35;;;0.10;99.90;;;;;;5104407;27;20662;-58
2021/12/06 03:09:05;;;;;;;8.38;7.50;;;0.10;99.90;;;;;;5083918;27;20576;-58
2021/12/06 03:11:47;;;;;;;8.80;7.95;;;0.10;99.90;;;;;;5146086;27;20538;-58
2021/12/06 03:14:29;;;;;;;10.07;8.25;;;0.20;99.90;;;;;;5083860;28;21015;-58
2021/12/06 03:17:14;;;;;;;9.77;8.70;;;0.20;99.90;;;;;;5084911;28;20539;-57
2021/12/06 03:19:54;;;;;;;10.20;8.20;;;0.20;99.90;;;;;;5146150;27;21030;-57
2021/12/06 03:22:33;;;;;;;10.75;8.45;;;0.20;99.90;;;;;;5084322;28;20970;-58
2021/12/06 03:25:14;;;;;;;8.20;7.40;;;0.20;99.90;;;;;;5083464;28;20660;-58
2021/12/06 03:27:54;;;;;;;6.55;6.05;;;0.20;99.90;;;;;;5104980;27;21120;-57
2021/12/06 03:30:34;;;;;;;6.38;5.95;;;0.20;99.90;;;;;;5084325;27;21038;-57
2021/12/06 03:33:14;;;;;;;7.15;6.55;;;0.10;99.90;;;;;;5084162;28;20652;-57
2021/12/06 03:35:53;;;;;;;5.25;4.85;;;0.10;99.90;;;;;;5124591;27;20670;-57
2021/12/06 03:38:34;;;;;;;6.13;5.70;;;0.10;99.90;;;;;;5084642;27;20547;-58
2021/12/06 03:41:16;;;;;;;5.82;5.38;;;0.10;99.90;;;;;;5084555;28;21118;-57
2021/12/06 03:43:58;;;;;;;5.22;4.82;;;0.10;99.90;;;;;;5083780;28;20687;-58
2021/12/06 03:46:38;;;;;;;5.45;5.00;;;0.10;99.90;;;;;;5124219;27;20672;-57
2021/12/06 03:49:19;;;;;;;6.22;5.63;;;0.10;99.90;;;;;;5104763;27;20557;-58
2021/12/06 03:51:59;;;;;;;5.60;5.20;;;0.00;99.90;;;;;;5084270;28;20668;-57
2021/12/06 03:54:39;;;;;;;6.15;5.65;;;0.00;99.90;;;;;;5165845;27;20659;-57
2021/12/06 03:57:19;;;;;;;6.93;6.43;;;0.00;99.90;;;;;;5125907;27;20536;-58
2021/12/06 03:59:58;;;;;;;6.63;6.07;;;0.00;99.90;;;;;;5084397;28;20539;-58
2021/12/06 04:02:40;;;;;;;6.78;6.28;;;0.00;99.90;;;;;;5122202;27;20577;-57
2021/12/06 04:05:20;;;;;;;6.90;6.38;;;0.00;99.90;;;;;;5104412;27;20541;-58
2021/12/06 04:07:59;;;;;;;6.72;6.22;;;0.00;99.90;;;;;;5084263;27;20543;-58
2021/12/06 04:10:39;;;;;;;6.82;6.30;;;0.00;99.90;;;;;;5124864;27;20882;-58
2021/12/06 04:13:19;;;;;;;6.97;6.47;;;0.00;99.90;;;;;;5125768;27;20532;-57
2021/12/06 04:15:59;;;;;;;6.57;6.07;;;0.00;99.90;;;;;;5083858;28;20609;-57
2021/12/06 04:18:39;;;;;;;6.60;6.10;;;0.00;99.90;;;;;;5104936;27;20571;-57
2021/12/06 04:21:21;;;;;;;7.28;6.78;;;0.00;99.90;;;;;;5145784;27;20665;-58
2021/12/06 04:24:00;;;;;;;7.10;6.60;;;0.00;99.90;;;;;;5083924;27;20543;-57
2021/12/06 04:26:40;;;;;;;7.65;7.03;;;0.00;99.90;;;;;;5124826;27;20536;-57
2021/12/06 04:29:20;;;;;;;8.23;7.53;;;0.00;99.90;;;;;;5125367;27;20676;-58
2021/12/06 04:31:59;;;;;;;8.07;7.38;;;0.00;99.90;;;;;;5145924;27;20593;-57
2021/12/06 04:34:40;;;;;;;7.95;7.18;;;0.00;99.90;;;;;;5135577;27;20544;-57
2021/12/06 04:37:19;;;;;;;7.60;6.82;;;-0.10;99.90;;;;;;5145933;27;21117;-58
2021/12/06 04:39:59;;;;;;;11.45;6.93;;;0.00;99.90;;;;;;5086704;27;20707;-58
2021/12/06 04:42:40;;;;;;;9.05;8.00;;;-0.10;99.90;;;;;;5125528;27;20646;-58
2021/12/06 04:45:19;;;;;;;11.65;7.88;;;-0.10;99.90;;;;;;5083159;28;20951;-57
2021/12/06 04:47:58;;;;;;;14.98;8.38;;;-0.10;99.90;;;;;;5146435;27;20568;-57
2021/12/06 04:50:40;;;;;;;19.38;7.88;;;-0.20;99.90;;;;;;5084605;27;21052;-58
2021/12/06 04:53:23;;;;;;;9.68;7.93;;;-0.30;99.90;;;;;;5146136;27;20627;-57
2021/12/06 04:56:08;;;;;;;15.27;7.07;;;-0.30;99.90;;;;;;5145608;27;21312;-57
2021/12/06 04:58:53;;;;;;;15.15;7.38;;;-0.30;99.90;;;;;;5078478;28;20610;-57
2021/12/06 05:01:35;;;;;;;27.42;7.88;;;-0.30;99.90;;;;;;5076072;28;20710;-57
2021/12/06 05:04:21;;;;;;;14.35;7.43;;;-0.30;99.90;;;;;;5101966;27;21090;-57
2021/12/06 05:07:07;;;;;;;18.40;7.93;;;-0.30;99.90;;;;;;5062301;27;20584;-57
2021/12/06 05:09:46;;;;;;;8.57;7.78;;;-0.20;99.90;;;;;;5061323;28;20698;-59
2021/12/06 05:12:31;;;;;;;10.05;7.95;;;-0.20;99.90;;;;;;5125361;27;20701;-58
2021/12/06 05:15:12;;;;;;;11.57;6.93;;;-0.20;99.90;;;;;;5077266;27;20545;-57
2021/12/06 05:17:52;;;;;;;12.63;6.75;;;-0.20;99.90;;;;;;5122640;22;20601;-54
2021/12/06 05:20:33;;;;;;;7.63;7.03;;;-0.20;99.90;;;;;;5077636;27;21170;-55
2021/12/06 05:23:12;;;;;;;7.50;6.85;;;-0.20;99.90;;;;;;5143056;27;21033;-56
2021/12/06 05:25:52;;;;;;;7.72;6.95;;;-0.10;99.90;;;;;;5120762;27;21135;-56
2021/12/06 05:28:34;;;;;;;8.05;7.15;;;-0.20;99.90;;;;;;5076828;27;21386;-56
2021/12/06 05:31:17;;;;;;;7.85;6.65;;;-0.20;99.90;;;;;;5137674;27;20681;-56
2021/12/06 05:34:02;;;;;;;8.05;6.63;;;-0.30;99.90;;;;;;5083422;28;20671;-56
2021/12/06 05:36:42;;;;;;;8.40;6.20;;;-0.30;99.90;;;;;;5094233;27;20559;-56
2021/12/06 05:39:21;;;;;;;7.13;6.57;;;-0.30;99.90;;;;;;5127326;27;20976;-56
2021/12/06 05:42:04;;;;;;;7.07;6.57;;;-0.30;99.90;;;;;;5103700;27;21066;-56
2021/12/06 05:44:43;;;;;;;7.78;7.18;;;-0.30;99.90;;;;;;5079060;28;20670;-55
2021/12/06 05:47:23;;;;;;;6.85;6.35;;;-0.30;99.90;;;;;;5081058;27;20561;-56
2021/12/06 05:50:04;;;;;;;6.38;5.88;;;-0.30;99.90;;;;;;5076405;27;20545;-55
2021/12/06 05:52:45;;;;;;;9.60;5.80;;;-0.40;99.90;;;;;;5104612;27;20674;-56
2021/12/06 05:55:27;;;;;;;9.82;6.43;;;-0.30;99.90;;;;;;5082677;27;20560;-56
2021/12/06 05:58:10;;;;;;;7.43;6.82;;;-0.40;99.90;;;;;;5084340;28;20617;-56
2021/12/06 06:00:50;;;;;;;6.18;5.78;;;-0.40;99.90;;;;;;5103064;27;21115;-56
2021/12/06 06:03:30;;;;;;;6.10;5.57;;;-0.40;99.90;;;;;;5083000;28;20672;-56
2021/12/06 06:06:09;;;;;;;49.78;22.55;;;-0.30;99.90;;;;;;5084393;28;20560;-56
2021/12/06 06:08:49;;;;;;;36.35;18.35;;;-0.30;99.90;;;;;;5083930;28;20667;-56
2021/12/06 06:11:29;;;;;;;31.23;16.17;;;-0.30;99.90;;;;;;5083549;28;20672;-56
2021/12/06 06:14:09;;;;;;;9.85;8.10;;;-0.30;99.90;;;;;;5103960;27;20669;-56
2021/12/06 06:16:51;;;;;;;15.35;10.93;;;-0.30;99.90;;;;;;5121107;27;20562;-56
2021/12/06 06:19:30;;;;;;;8.40;7.53;;;-0.20;99.90;;;;;;5084080;28;20555;-56
2021/12/06 06:22:10;;;;;;;7.72;7.03;;;-0.30;99.90;;;;;;5084071;28;20540;-56
2021/12/06 06:24:50;;;;;;;7.20;6.63;;;-0.20;99.90;;;;;;5102783;27;20670;-56
2021/12/06 06:27:30;;;;;;;7.43;6.72;;;-0.20;99.90;;;;;;5068778;28;20713;-56
2021/12/06 06:30:14;;;;;;;7.93;7.28;;;-0.20;99.90;;;;;;5083902;27;20548;-56
2021/12/06 06:32:54;;;;;;;8.98;8.18;;;-0.20;99.90;;;;;;5124817;27;20540;-56
2021/12/06 06:35:34;;;;;;;7.88;7.25;;;-0.20;99.90;;;;;;5103903;27;20545;-56
2021/12/06 06:38:16;;;;;;;7.97;7.38;;;-0.20;99.90;;;;;;5145837;27;21058;-56
2021/12/06 06:40:58;;;;;;;9.20;8.40;;;-0.20;99.90;;;;;;5146083;27;20530;-55
2021/12/06 06:43:37;;;;;;;8.80;7.88;;;-0.10;99.90;;;;;;5083714;27;20796;-55
2021/12/06 06:46:16;;;;;;;8.20;7.38;;;-0.20;99.90;;;;;;5077142;27;21230;-56
2021/12/06 06:48:57;;;;;;;8.23;7.47;;;-0.10;99.90;;;;;;5084594;27;21084;-56
2021/12/06 06:51:36;;;;;;;7.55;6.90;;;-0.10;99.90;;;;;;5084706;27;20680;-56
2021/12/06 06:54:16;;;;;;;7.25;6.68;;;-0.20;99.90;;;;;;5145852;27;20664;-56
2021/12/06 06:56:56;;;;;;;6.47;5.97;;;-0.20;99.90;;;;;;5158138;27;21068;-55
2021/12/06 06:59:36;;;;;;;5.95;5.45;;;-0.20;99.90;;;;;;5104919;27;20857;-56
2021/12/06 07:02:16;;;;;;;6.25;5.85;;;-0.20;99.90;;;;;;5083209;28;20659;-56
2021/12/06 07:04:55;;;;;;;5.82;5.43;;;-0.20;99.90;;;;;;5082712;28;20675;-54
2021/12/06 07:07:35;;;;;;;6.63;6.13;;;-0.20;99.90;;;;;;5084391;27;20557;-56
2021/12/06 07:10:15;;;;;;;6.95;6.43;;;-0.20;99.90;;;;;;5084350;27;20555;-56
2021/12/06 07:12:59;;;;;;;6.60;6.10;;;-0.30;99.90;;;;;;5084465;27;20543;-56
2021/12/06 07:15:39;;;;;;;6.35;5.80;;;-0.30;99.90;;;;;;5104859;27;21019;-56
2021/12/06 07:18:17;;;;;;;14.30;12.95;;;-0.30;99.90;;;;;;5085021;28;20601;-56
2021/12/06 07:20:58;;;;;;;9.40;7.47;;;-0.20;99.90;;;;;;5084610;27;20672;-56
2021/12/06 07:23:38;;;;;;;8.10;7.13;;;-0.30;99.90;;;;;;5125117;27;20543;-55
2021/12/06 07:26:19;;;;;;;8.23;7.63;;;-0.30;99.90;;;;;;5084911;28;20680;-56
2021/12/06 07:29:00;;;;;;;22.50;15.80;;;-0.30;99.90;;;;;;5085405;27;20850;-56
2021/12/06 07:31:40;;;;;;;17.90;8.70;;;-0.30;99.90;;;;;;5105439;27;21136;-56
2021/12/06 07:34:20;;;;;;;7.70;7.10;;;-0.30;99.90;;;;;;5085233;28;20540;-55
2021/12/06 07:36:59;;;;;;;25.45;8.80;;;-0.30;99.90;;;;;;5085195;27;21102;-56
2021/12/06 07:39:39;;;;;;;14.52;7.65;;;-0.40;99.90;;;;;;5084561;27;20672;-56
2021/12/06 07:42:19;;;;;;;9.48;7.10;;;-0.40;99.90;;;;;;5104978;27;20669;-57
2021/12/06 07:44:59;;;;;;;10.18;8.15;;;-0.40;99.90;;;;;;5084209;28;20660;-56
2021/12/06 07:47:39;;;;;;;8.50;7.80;;;-0.30;99.90;;;;;;5146464;27;21071;-56
2021/12/06 07:50:21;;;;;;;9.88;6.57;;;-0.20;99.90;;;;;;5085198;27;20604;-56
2021/12/06 07:53:00;;;;;;;9.05;6.97;;;-0.10;99.90;;;;;;5084762;27;20675;-56
2021/12/06 07:55:40;;;;;;;8.27;6.82;;;0.00;99.90;;;;;;5084007;28;21022;-56
2021/12/06 07:58:20;;;;;;;6.25;5.75;;;0.10;99.90;;;;;;5105138;27;20677;-56
2021/12/06 08:01:00;;;;;;;5.07;4.68;;;0.10;99.90;;;;;;5103061;27;20537;-56
2021/12/06 08:03:41;;;;;;;5.43;5.03;;;0.20;99.90;;;;;;5084258;27;20566;-56
2021/12/06 08:06:21;;;;;;;7.68;6.82;;;0.30;99.90;;;;;;5084180;28;21176;-56
2021/12/06 08:09:01;;;;;;;7.15;6.45;;;0.40;99.90;;;;;;5084591;27;20539;-56
2021/12/06 08:11:43;;;;;;;11.82;6.85;;;0.40;99.90;;;;;;5084830;27;21148;-56
2021/12/06 08:14:22;;;;;;;6.38;5.80;;;0.60;99.90;;;;;;5083813;27;20535;-56
2021/12/06 08:17:02;;;;;;;6.15;5.65;;;0.80;99.90;;;;;;5084449;27;21092;-56
2021/12/06 08:19:42;;;;;;;5.90;5.40;;;1.00;99.90;;;;;;5146256;27;20669;-56
2021/12/06 08:22:21;;;;;;;5.80;5.20;;;1.30;99.90;;;;;;5146225;27;20531;-56
2021/12/06 08:25:01;;;;;;;5.53;5.13;;;1.60;99.90;;;;;;5104205;27;20701;-56
2021/12/06 08:27:41;;;;;;;5.35;4.97;;;1.90;99.90;;;;;;5084776;27;20548;-56
2021/12/06 08:30:24;;;;;;;5.88;5.47;;;2.00;99.90;;;;;;5104883;27;20534;-56
2021/12/06 08:33:06;;;;;;;5.38;5.00;;;2.20;99.90;;;;;;5085431;27;21114;-56
2021/12/06 08:35:48;;;;;;;5.75;5.35;;;2.40;99.90;;;;;;5082193;28;20667;-56
2021/12/06 08:38:29;;;;;;;5.22;4.82;;;2.80;99.90;;;;;;5143809;27;20775;-56
2021/12/06 08:41:10;;;;;;;5.97;5.40;;;3.00;99.90;;;;;;5084841;27;20532;-56
2021/12/06 08:43:53;;;;;;;4.88;4.53;;;3.10;99.90;;;;;;5084790;28;20543;-56
2021/12/06 08:46:36;;;;;;;4.63;4.22;;;3.10;99.90;;;;;;5084213;28;20555;-56
2021/12/06 08:49:16;;;;;;;5.10;4.70;;;3.10;99.90;;;;;;5084829;27;20536;-56
2021/12/06 08:51:57;;;;;;;5.13;4.72;;;2.90;99.90;;;;;;5146586;27;20538;-56
2021/12/06 08:54:37;;;;;;;5.35;5.05;;;2.60;99.90;;;;;;5085095;27;20535;-56
2021/12/06 08:57:17;;;;;;;5.40;5.00;;;2.40;99.90;;;;;;5085467;27;20559;-56
2021/12/06 08:59:57;;;;;;;4.88;4.47;;;2.40;99.90;;;;;;5085536;28;20551;-56
2021/12/06 09:02:37;;;;;;;4.80;4.40;;;2.20;99.90;;;;;;5083630;27;20549;-56
2021/12/06 09:05:17;;;;;;;5.65;5.15;;;2.40;99.90;;;;;;5084832;27;20557;-56
2021/12/06 09:07:57;;;;;;;5.53;5.03;;;2.40;99.90;;;;;;5126465;27;20544;-56
2021/12/06 09:10:36;;;;;;;6.47;5.97;;;2.40;99.90;;;;;;5105823;27;20642;-56
2021/12/06 09:13:16;;;;;;;7.53;6.97;;;2.60;99.90;;;;;;5105830;27;20546;-56
2021/12/06 09:15:59;;;;;;;6.70;6.20;;;2.60;99.90;;;;;;5085216;27;20582;-56
2021/12/06 09:18:41;;;;;;;7.43;6.72;;;2.70;99.90;;;;;;5106468;27;20539;-56
2021/12/06 09:21:22;;;;;;;6.30;5.80;;;2.80;99.90;;;;;;5085518;28;20661;-56
2021/12/06 09:24:01;;;;;;;6.45;5.82;;;2.70;99.90;;;;;;5085156;27;20543;-56
2021/12/06 09:26:43;;;;;;;6.07;5.57;;;2.70;99.90;;;;;;5105454;27;21054;-56
2021/12/06 09:29:24;;;;;;;5.93;5.43;;;2.80;99.90;;;;;;5084871;27;21075;-56
2021/12/06 09:32:07;;;;;;;5.85;5.40;;;2.80;99.90;;;;;;5084508;28;20528;-56
2021/12/06 09:34:47;;;;;;;5.75;5.35;;;2.80;99.90;;;;;;5084611;27;20566;-56
2021/12/06 09:37:27;;;;;;;6.50;6.00;;;2.80;99.90;;;;;;5125768;27;20667;-55
2021/12/06 09:40:19;;;;;;;6.57;6.07;;;2.80;99.90;;;;;;5105170;27;21270;-56
2021/12/06 09:43:00;;;;;;;6.55;5.95;;;2.80;99.90;;;;;;5105225;27;20533;-56
2021/12/06 09:45:42;;;;;;;6.15;5.75;;;2.80;99.90;;;;;;5084066;27;21046;-56
2021/12/06 09:48:22;;;;;;;6.47;5.78;;;2.90;99.90;;;;;;5125720;27;20548;-56
2021/12/06 09:51:05;;;;;;;6.78;6.25;;;2.90;99.90;;;;;;5105414;27;20658;-56
2021/12/06 09:53:47;;;;;;;6.75;6.20;;;2.90;99.90;;;;;;5084518;27;20543;-56
2021/12/06 09:56:29;;;;;;;6.95;5.95;;;3.00;99.90;;;;;;5084551;28;20668;-56
2021/12/06 09:59:11;;;;;;;6.55;6.05;;;3.10;99.90;;;;;;5084913;27;20551;-56
2021/12/06 10:01:55;;;;;;;7.65;6.95;;;3.00;99.90;;;;;;5104030;27;21061;-56
2021/12/06 10:04:39;;;;;;;7.55;6.95;;;3.10;99.90;;;;;;5103984;27;20607;-56
2021/12/06 10:07:19;;;;;;;7.05;6.45;;;3.20;99.90;;;;;;5105401;27;21202;-54
2021/12/06 10:10:00;;;;;;;6.57;6.10;;;3.40;99.90;;;;;;5085108;28;20539;-56
2021/12/06 10:12:39;;;;;;;6.28;5.80;;;3.50;99.90;;;;;;5084624;28;20668;-56
2021/12/06 10:15:19;;;;;;;6.18;5.60;;;3.40;99.90;;;;;;5084146;27;21224;-56
2021/12/06 10:18:02;;;;;;;6.13;5.53;;;3.40;99.90;;;;;;5105070;27;20694;-56
2021/12/06 10:20:43;;;;;;;5.13;4.72;;;3.40;99.90;;;;;;5146290;27;21000;-56
2021/12/06 10:23:23;;;;;;;5.53;5.13;;;3.40;99.90;;;;;;5084486;27;20569;-56
2021/12/06 10:26:05;;;;;;;6.63;6.13;;;3.40;99.90;;;;;;5072577;27;20512;-56
2021/12/06 10:28:45;;;;;;;6.30;5.80;;;3.40;99.90;;;;;;5109513;27;20585;-55
2021/12/06 10:31:26;;;;;;;6.57;5.97;;;3.40;99.90;;;;;;5083704;28;20664;-56
2021/12/06 10:34:06;;;;;;;5.63;5.20;;;3.50;99.90;;;;;;5145476;27;20849;-56
2021/12/06 10:36:46;;;;;;;4.97;4.68;;;3.60;99.90;;;;;;5104723;27;20557;-55
2021/12/06 10:39:25;;;;;;;6.47;5.97;;;3.60;99.90;;;;;;5084601;27;20543;-56
2021/12/06 10:42:06;;;;;;;5.78;5.28;;;3.70;99.90;;;;;;5084180;27;20556;-56
2021/12/06 10:44:52;;;;;;;5.85;5.32;;;3.70;99.90;;;;;;5124675;27;20559;-54
2021/12/06 10:47:31;;;;;;;5.32;4.93;;;3.70;99.90;;;;;;5105103;27;20673;-56
2021/12/06 10:50:16;;;;;;;5.45;5.05;;;3.70;99.90;;;;;;5084425;27;20562;-56
2021/12/06 10:52:58;;;;;;;6.13;5.68;;;3.80;99.90;;;;;;5084537;27;21067;-56
2021/12/06 10:55:37;;;;;;;5.82;5.43;;;3.80;99.90;;;;;;5145552;27;20661;-55
2021/12/06 10:58:19;;;;;;;6.25;5.85;;;3.90;99.90;;;;;;5084949;27;20539;-55
2021/12/06 11:01:04;;;;;;;6.28;5.78;;;3.90;99.90;;;;;;5144692;27;20658;-55
2021/12/06 11:03:47;;;;;;;6.05;5.38;;;4.00;99.90;;;;;;5084510;27;20543;-55
2021/12/06 11:06:32;;;;;;;5.78;5.28;;;4.00;99.90;;;;;;5084118;28;20683;-55
2021/12/06 11:09:13;;;;;;;5.00;4.60;;;4.00;99.90;;;;;;5105116;27;20530;-55
2021/12/06 11:11:56;;;;;;;5.55;5.05;;;3.90;99.90;;;;;;5146030;27;20673;-55
2021/12/06 11:14:39;;;;;;;6.43;5.85;;;4.00;99.90;;;;;;5145350;27;21423;-55
2021/12/06 11:17:21;;;;;;;6.55;5.95;;;4.20;99.90;;;;;;5084825;27;20569;-56
2021/12/06 11:20:01;;;;;;;6.13;5.63;;;4.20;99.90;;;;;;5084776;27;20568;-55
2021/12/06 11:22:42;;;;;;;6.15;5.65;;;4.30;99.90;;;;;;5145875;27;20665;-56
2021/12/06 11:25:21;;;;;;;6.22;5.72;;;4.40;99.90;;;;;;5103804;27;20575;-56
2021/12/06 11:28:00;;;;;;;6.30;5.80;;;4.50;99.90;;;;;;5105235;27;21061;-56
2021/12/06 11:30:40;;;;;;;6.05;5.45;;;4.60;99.90;;;;;;5084610;27;20532;-55
2021/12/06 11:33:29;;;;;;;6.38;5.78;;;4.60;99.90;;;;;;5146272;27;20653;-56
2021/12/06 11:36:20;;;;;;;5.45;5.05;;;4.50;99.90;;;;;;5144690;27;21014;-56
2021/12/06 11:39:03;;;;;;;5.80;5.40;;;4.40;99.90;;;;;;5146038;27;20592;-56
2021/12/06 11:41:45;;;;;;;5.68;5.18;;;4.40;99.90;;;;;;5104615;27;20534;-55
2021/12/06 11:44:29;;;;;;;6.70;6.13;;;4.40;99.90;;;;;;5083937;28;20655;-56
2021/12/06 11:47:10;;;;;;;5.82;5.38;;;4.50;99.90;;;;;;5104751;27;20553;-55
2021/12/06 11:49:53;;;;;;;5.57;5.18;;;4.50;99.90;;;;;;5084576;28;20953;-55
2021/12/06 11:52:35;;;;;;;6.53;5.85;;;4.70;99.90;;;;;;5084331;27;20549;-56
2021/12/06 11:55:14;;;;;;;6.15;5.55;;;4.70;99.90;;;;;;5084667;27;20552;-55
2021/12/06 11:57:54;;;;;;;5.68;5.28;;;4.70;99.90;;;;;;5146382;27;20558;-55
2021/12/06 12:00:34;;;;;;;6.72;6.13;;;4.70;99.90;;;;;;5148727;22;20604;-56
2021/12/06 12:03:13;;;;;;;6.57;5.97;;;4.80;99.90;;;;;;5146691;27;20732;-56
2021/12/06 12:05:53;;;;;;;6.43;5.93;;;4.70;99.90;;;;;;5146285;27;20661;-56
2021/12/06 12:08:34;;;;;;;6.78;6.20;;;4.70;99.90;;;;;;5105444;27;20670;-56
2021/12/06 12:11:13;;;;;;;6.53;6.03;;;4.70;99.90;;;;;;5146367;27;20554;-56
2021/12/06 12:13:53;;;;;;;7.47;6.40;;;4.70;99.90;;;;;;5084624;28;20539;-56
2021/12/06 12:16:32;;;;;;;6.95;6.35;;;4.70;99.90;;;;;;5084630;28;20679;-56
2021/12/06 12:19:12;;;;;;;7.22;6.68;;;4.60;99.90;;;;;;5084571;28;21208;-56
2021/12/06 12:21:52;;;;;;;6.78;6.25;;;4.60;99.90;;;;;;5084919;28;20975;-56
2021/12/06 12:24:33;;;;;;;6.15;5.65;;;4.50;99.90;;;;;;5084193;28;20659;-56
2021/12/06 12:27:22;;;;;;;6.00;5.50;;;4.60;99.90;;;;;;5084989;28;21066;-56
2021/12/06 12:30:05;;;;;;;6.60;6.07;;;4.60;99.90;;;;;;5085005;28;20555;-56
2021/12/06 12:32:45;;;;;;;6.07;5.45;;;4.50;99.90;;;;;;5146235;27;20534;-56
2021/12/06 12:35:25;;;;;;;6.13;5.53;;;4.50;99.90;;;;;;5084890;28;20876;-56
2021/12/06 12:38:05;;;;;;;5.97;5.50;;;4.40;99.90;;;;;;5105163;27;20665;-56
2021/12/06 12:40:48;;;;;;;5.70;5.20;;;4.30;99.90;;;;;;5159890;27;20537;-56
2021/12/06 12:43:35;;;;;;;5.72;5.22;;;4.30;99.90;;;;;;5084723;27;20540;-56
2021/12/06 12:46:17;;;;;;;5.82;5.32;;;4.30;99.90;;;;;;5125227;27;20537;-56
2021/12/06 12:48:59;;;;;;;5.55;5.05;;;4.20;99.90;;;;;;5105332;27;20541;-56
2021/12/06 12:51:40;;;;;;;7.00;6.35;;;4.10;99.90;;;;;;5105385;27;20541;-56
2021/12/06 12:54:24;;;;;;;5.90;5.28;;;4.20;99.90;;;;;;5104992;27;20665;-56
2021/12/06 12:57:06;;;;;;;8.05;5.38;;;4.10;99.90;;;;;;5105650;27;20666;-56
2021/12/06 12:59:48;;;;;;;5.85;5.35;;;4.10;99.90;;;;;;5085134;27;21096;-56
2021/12/06 13:02:32;;;;;;;5.03;4.63;;;4.10;99.90;;;;;;5103678;27;20537;-56
2021/12/06 13:05:17;;;;;;;5.53;5.05;;;4.10;99.90;;;;;;5083870;28;20604;-56
2021/12/06 13:08:08;;;;;;;6.05;5.55;;;4.00;99.90;;;;;;5136838;27;20660;-56
2021/12/06 13:10:56;;;;;;;5.72;5.13;;;4.00;99.90;;;;;;5124473;27;20547;-56
2021/12/06 13:13:42;;;;;;;6.40;5.82;;;3.90;99.90;;;;;;5144821;27;20659;-56
2021/12/06 13:16:32;;;;;;;5.78;5.28;;;4.00;99.90;;;;;;5083848;27;20583;-56
2021/12/06 13:19:21;;;;;;;5.35;4.95;;;4.00;99.90;;;;;;5083461;27;20569;-56
2021/12/06 13:22:11;;;;;;;6.75;6.25;;;4.10;99.90;;;;;;5137367;27;20661;-56
2021/12/06 13:24:56;;;;;;;6.13;5.53;;;4.10;99.90;;;;;;5083729;28;20684;-56
2021/12/06 13:27:40;;;;;;;5.90;5.20;;;4.10;99.90;;;;;;5084539;27;20543;-56
2021/12/06 13:30:23;;;;;;;5.68;5.18;;;4.00;99.90;;;;;;5127547;27;20647;-56
2021/12/06 13:33:04;;;;;;;5.30;4.85;;;4.00;99.90;;;;;;5083897;28;20663;-56
2021/12/06 13:35:52;;;;;;;6.65;6.15;;;4.10;99.90;;;;;;5103597;27;20961;-56
2021/12/06 13:38:45;;;;;;;5.85;5.35;;;4.10;99.90;;;;;;5136260;27;20542;-56
2021/12/06 13:41:28;;;;;;;6.13;5.63;;;4.00;99.90;;;;;;5124688;27;21246;-56
2021/12/06 13:44:10;;;;;;;5.78;5.20;;;3.90;99.90;;;;;;5103785;27;21033;-56
2021/12/06 13:46:53;;;;;;;7.38;5.45;;;3.80;99.90;;;;;;5128133;27;20544;-56
2021/12/06 13:49:32;;;;;;;5.53;5.10;;;3.70;99.90;;;;;;5084699;28;20685;-56
2021/12/06 13:52:12;;;;;;;5.35;4.95;;;3.60;99.90;;;;;;5146388;27;20542;-56
2021/12/06 13:54:52;;;;;;;5.53;5.03;;;3.50;99.90;;;;;;5084134;27;20562;-56
2021/12/06 13:57:32;;;;;;;6.43;5.82;;;3.40;99.90;;;;;;5146619;27;20603;-56
2021/12/06 14:00:29;;;;;;;6.45;5.85;;;3.30;99.90;;;;;;5083223;27;20555;-56
2021/12/06 14:03:12;;;;;;;7.07;6.47;;;3.30;99.90;;;;;;5105102;27;20658;-57
2021/12/06 14:05:52;;;;;;;7.65;6.97;;;3.20;99.90;;;;;;5084571;27;20543;-56
2021/12/06 14:08:31;;;;;;;9.40;8.30;;;3.20;99.90;;;;;;5084971;27;20535;-56
2021/12/06 14:11:20;;;;;;;5.82;5.43;;;3.10;99.90;;;;;;5085072;27;20547;-56
2021/12/06 14:13:59;;;;;;;6.35;5.85;;;3.10;99.90;;;;;;5084402;28;20675;-56